createdAt,value
2023-04-12T00:01:46.637Z,8.17
2023-04-12T00:04:16.239Z,8.21
2023-04-12T00:06:48.695Z,8.14
2023-04-12T00:09:16.963Z,8.12
2023-04-12T00:11:44.859Z,8.15
2023-04-12T00:14:12.910Z,8.16
2023-04-12T00:16:41.703Z,8.13
2023-04-12T00:19:09.555Z,8.13
2023-04-12T00:21:37.381Z,8.11
2023-04-12T00:24:07.199Z,8.12
2023-04-12T00:26:35.058Z,8.07
2023-04-12T00:29:03.074Z,8.08
2023-04-12T00:31:31.169Z,8.07
2023-04-12T00:33:59.242Z,8.09
2023-04-12T00:36:27.231Z,8.08
2023-04-12T00:38:55.207Z,8.08
2023-04-12T00:41:25.285Z,8.12
2023-04-12T00:43:53.163Z,8.12
2023-04-12T00:46:21.208Z,8.13
2023-04-12T00:48:49.086Z,8.12
2023-04-12T00:51:18.205Z,8.15
2023-04-12T00:53:46.435Z,8.14
2023-04-12T00:56:14.403Z,8.12
2023-04-12T00:58:43.697Z,8.14
2023-04-12T01:01:11.687Z,8.05
2023-04-12T01:03:43.123Z,8.12
2023-04-12T01:06:15.441Z,8.05
2023-04-12T01:08:55.220Z,8.12
2023-04-12T01:11:32.272Z,8.11
2023-04-12T01:14:09.145Z,8.10
2023-04-12T01:16:44.406Z,8.09
2023-04-12T01:19:28.680Z,8.12
2023-04-12T01:22:08.880Z,8.11
2023-04-12T01:24:44.712Z,8.13
2023-04-12T01:27:23.541Z,8.13
2023-04-12T01:29:52.205Z,8.08
2023-04-12T01:32:21.691Z,8.11
2023-04-12T01:34:50.668Z,8.08
2023-04-12T01:37:19.945Z,8.11
2023-04-12T01:39:48.187Z,8.08
2023-04-12T01:42:20.185Z,8.06
2023-04-12T01:44:50.125Z,8.02
2023-04-12T01:47:18.080Z,8.01
2023-04-12T01:49:56.760Z,7.96
2023-04-12T01:52:32.182Z,7.94
2023-04-12T01:55:03.535Z,7.84
2023-04-12T01:57:32.613Z,7.87
2023-04-12T02:00:06.653Z,7.87
2023-04-12T02:02:36.647Z,7.86
2023-04-12T02:05:08.122Z,7.83
2023-04-12T02:07:37.294Z,7.79
2023-04-12T02:10:05.508Z,7.78
2023-04-12T02:12:33.468Z,7.77
2023-04-12T02:15:03.776Z,7.72
2023-04-12T02:17:31.659Z,7.73
2023-04-12T02:19:59.594Z,7.77
2023-04-12T02:22:27.517Z,7.80
2023-04-12T02:24:55.423Z,7.77
2023-04-12T02:27:23.301Z,7.76
2023-04-12T02:29:51.184Z,7.79
2023-04-12T02:32:21.033Z,7.81
2023-04-12T02:34:51.562Z,7.78
2023-04-12T02:37:22.116Z,7.74
2023-04-12T02:39:50.374Z,7.78
2023-04-12T02:42:18.290Z,7.71
2023-04-12T02:44:47.982Z,7.75
2023-04-12T02:47:15.969Z,7.74
2023-04-12T02:49:45.202Z,7.72
2023-04-12T02:52:13.731Z,7.70
2023-04-12T02:54:41.589Z,7.71
2023-04-12T02:57:09.413Z,7.64
2023-04-12T02:59:37.343Z,7.68
2023-04-12T03:02:05.315Z,7.75
2023-04-12T03:04:33.367Z,7.74
2023-04-12T03:07:02.746Z,7.73
2023-04-12T03:09:32.260Z,7.75
2023-04-12T03:12:00.190Z,7.82
2023-04-12T03:14:28.087Z,7.80
2023-04-12T03:16:56.512Z,7.83
2023-04-12T03:19:24.389Z,7.84
2023-04-12T03:21:52.581Z,7.82
2023-04-12T03:24:21.788Z,7.87
2023-04-12T03:26:50.163Z,7.88
2023-04-12T03:29:18.273Z,7.87
2023-04-12T03:31:46.103Z,7.83
2023-04-12T03:34:13.953Z,7.88
2023-04-12T03:36:42.587Z,7.96
2023-04-12T03:39:10.543Z,7.98
2023-04-12T03:41:39.852Z,8.01
2023-04-12T03:44:07.787Z,8.02
2023-04-12T03:46:36.210Z,8.02
2023-04-12T03:49:04.145Z,8.01
2023-04-12T03:51:32.040Z,8.00
2023-04-12T03:54:02.761Z,7.99
2023-04-12T03:56:30.672Z,8.05
2023-04-12T03:58:59.950Z,8.01
2023-04-12T04:01:29.246Z,8.00
2023-04-12T04:03:57.432Z,8.05
2023-04-12T04:06:25.743Z,8.02
2023-04-12T04:08:53.784Z,8.02
2023-04-12T04:11:21.682Z,8.01
2023-04-12T04:13:49.577Z,8.04
2023-04-12T04:16:19.216Z,8.03
2023-04-12T04:18:47.258Z,8.00
2023-04-12T04:21:15.345Z,8.00
2023-04-12T04:23:44.770Z,8.00
2023-04-12T04:26:13.950Z,7.99
2023-04-12T04:28:45.347Z,7.93
2023-04-12T04:31:13.776Z,7.93
2023-04-12T04:33:43.071Z,7.93
2023-04-12T04:36:12.697Z,7.93
2023-04-12T04:38:40.637Z,7.87
2023-04-12T04:41:10.427Z,7.85
2023-04-12T04:43:39.969Z,7.86
2023-04-12T04:46:08.396Z,7.89
2023-04-12T04:48:36.512Z,7.91
2023-04-12T04:51:05.913Z,7.86
2023-04-12T04:53:34.370Z,7.89
2023-04-12T04:56:02.264Z,7.86
2023-04-12T04:58:30.296Z,7.81
2023-04-12T05:00:59.711Z,7.82
2023-04-12T05:03:30.342Z,7.87
2023-04-12T05:05:58.738Z,7.89
2023-04-12T05:08:28.719Z,7.78
2023-04-12T05:10:57.128Z,7.82
2023-04-12T05:13:25.353Z,7.81
2023-04-12T05:15:55.360Z,7.87
2023-04-12T05:18:23.217Z,7.89
2023-04-12T05:20:51.085Z,7.81
2023-04-12T05:23:18.974Z,7.89
2023-04-12T05:25:50.111Z,7.86
2023-04-12T05:28:18.361Z,7.92
2023-04-12T05:30:46.648Z,7.95
2023-04-12T05:33:14.646Z,7.94
2023-04-12T05:35:42.565Z,7.95
2023-04-12T05:38:10.605Z,7.95
2023-04-12T05:40:38.761Z,7.97
2023-04-12T05:43:08.599Z,7.99
2023-04-12T05:45:36.464Z,8.06
2023-04-12T05:48:04.585Z,7.93
2023-04-12T05:50:32.553Z,8.06
2023-04-12T05:53:02.086Z,7.99
2023-04-12T05:55:30.296Z,7.98
2023-04-12T05:57:58.704Z,7.98
2023-04-12T06:00:28.114Z,7.92
2023-04-12T06:02:57.210Z,7.89
2023-04-12T06:05:25.330Z,7.83
2023-04-12T06:07:53.305Z,7.77
2023-04-12T06:10:21.400Z,7.81
2023-04-12T06:12:49.308Z,7.73
2023-04-12T06:15:17.579Z,7.66
2023-04-12T06:17:46.974Z,7.71
2023-04-12T06:20:15.993Z,7.65
2023-04-12T06:22:43.988Z,7.62
2023-04-12T06:25:12.246Z,7.64
2023-04-12T06:27:40.141Z,7.65
2023-04-12T06:30:11.886Z,7.67
2023-04-12T06:32:39.833Z,7.67
2023-04-12T06:35:09.701Z,7.75
2023-04-12T06:37:37.569Z,7.80
2023-04-12T06:40:06.476Z,7.85
2023-04-12T06:42:34.347Z,7.89
2023-04-12T06:45:02.310Z,7.89
2023-04-12T06:47:31.672Z,7.97
2023-04-12T06:49:59.606Z,8.05
2023-04-12T06:52:28.908Z,8.14
2023-04-12T06:54:57.267Z,7.92
2023-04-12T06:57:25.797Z,7.94
2023-04-12T06:59:53.736Z,8.02
2023-04-12T07:02:21.813Z,8.03
2023-04-12T07:04:53.447Z,7.98
2023-04-12T07:07:21.809Z,8.12
2023-04-12T07:09:52.338Z,8.15
2023-04-12T07:12:20.330Z,8.24
2023-04-12T07:14:48.292Z,8.47
2023-04-12T07:17:16.200Z,8.55
2023-04-12T07:19:44.676Z,8.78
2023-04-12T07:22:14.145Z,8.82
2023-04-12T07:24:42.212Z,8.88
2023-04-12T07:27:12.425Z,8.63
2023-04-12T07:29:40.328Z,8.59
2023-04-12T07:32:09.321Z,8.39
2023-04-12T07:34:37.803Z,8.39
2023-04-12T07:37:06.209Z,8.54
2023-04-12T07:39:35.023Z,8.49
2023-04-12T07:42:03.417Z,8.41
2023-04-12T07:44:35.589Z,8.37
2023-04-12T07:47:05.053Z,8.31
2023-04-12T07:49:33.036Z,8.35
2023-04-12T07:52:01.043Z,8.57
2023-04-12T07:54:29.736Z,8.78
2023-04-12T07:57:01.781Z,8.94
2023-04-12T07:59:30.610Z,9.05
2023-04-12T08:02:00.293Z,9.07
2023-04-12T08:04:29.119Z,9.08
2023-04-12T08:06:57.147Z,9.14
2023-04-12T08:09:25.477Z,9.24
2023-04-12T08:11:53.398Z,9.29
2023-04-12T08:14:21.546Z,9.27
2023-04-12T08:16:49.807Z,9.25
2023-04-12T08:19:19.771Z,8.94
2023-04-12T08:21:47.724Z,8.82
2023-04-12T08:24:15.608Z,8.66
2023-04-12T08:26:43.569Z,8.79
2023-04-12T08:29:11.458Z,8.82
2023-04-12T08:31:39.575Z,9.05
2023-04-12T08:34:07.805Z,9.19
2023-04-12T08:36:37.096Z,9.33
2023-04-12T08:39:05.248Z,9.46
2023-04-12T08:41:36.501Z,9.74
2023-04-12T08:44:06.003Z,9.72
2023-04-12T08:46:36.945Z,10.08
2023-04-12T08:49:04.913Z,10.29
2023-04-12T08:51:36.285Z,10.29
2023-04-12T08:54:06.565Z,10.25
2023-04-12T08:56:34.742Z,10.00
2023-04-12T08:59:03.595Z,10.00
2023-04-12T09:01:31.502Z,10.04
2023-04-12T09:03:59.831Z,10.16
2023-04-12T09:06:28.111Z,10.27
2023-04-12T09:08:59.588Z,10.10
2023-04-12T09:11:29.757Z,10.40
2023-04-12T09:13:59.083Z,10.48
2023-04-12T09:16:38.163Z,10.65
2023-04-12T09:19:06.486Z,10.65
2023-04-12T09:21:35.907Z,10.51
2023-04-12T09:24:11.583Z,10.50
2023-04-12T09:26:44.940Z,10.74
2023-04-12T09:29:25.653Z,10.91
2023-04-12T09:31:58.398Z,11.05
2023-04-12T09:34:27.925Z,11.00
2023-04-12T09:36:56.345Z,10.76
2023-04-12T09:39:33.072Z,10.65
2023-04-12T09:42:25.698Z,10.78
2023-04-12T09:45:01.688Z,10.84
2023-04-12T09:47:40.195Z,10.82
2023-04-12T09:50:09.819Z,10.71
2023-04-12T09:52:38.850Z,11.07
2023-04-12T09:55:10.734Z,11.26
2023-04-12T09:57:42.524Z,11.32
2023-04-12T10:00:17.289Z,11.04
2023-04-12T10:02:47.803Z,11.42
2023-04-12T10:05:18.575Z,11.49
2023-04-12T10:07:47.475Z,11.43
2023-04-12T10:10:17.356Z,11.44
2023-04-12T10:12:47.922Z,11.54
2023-04-12T10:15:17.842Z,11.67
2023-04-12T10:17:47.781Z,11.81
2023-04-12T10:20:17.476Z,12.03
2023-04-12T10:22:47.092Z,12.11
2023-04-12T10:25:16.364Z,12.03
2023-04-12T10:27:46.548Z,12.26
2023-04-12T10:30:25.638Z,12.38
2023-04-12T10:33:14.961Z,12.96
2023-04-12T10:35:55.570Z,13.33
2023-04-12T10:38:26.928Z,12.98
2023-04-12T10:41:16.875Z,13.27
2023-04-12T10:43:46.913Z,13.30
2023-04-12T10:46:49.722Z,13.89
2023-04-12T10:49:18.522Z,13.61
2023-04-12T10:52:18.038Z,13.87
2023-04-12T10:54:45.912Z,13.77
2023-04-12T10:57:42.340Z,13.13
2023-04-12T11:00:12.869Z,13.01
2023-04-12T11:03:07.561Z,13.56
2023-04-12T11:05:58.471Z,13.56
2023-04-12T11:08:27.492Z,13.99
2023-04-12T11:11:03.126Z,14.04
2023-04-12T11:13:35.792Z,13.51
2023-04-12T11:16:07.653Z,13.55
2023-04-12T11:18:36.075Z,13.59
2023-04-12T11:21:04.789Z,13.38
2023-04-12T11:23:33.251Z,13.46
2023-04-12T11:26:01.113Z,13.33
2023-04-12T11:28:31.925Z,13.61
2023-04-12T11:31:01.353Z,14.11
2023-04-12T11:33:37.406Z,14.15
2023-04-12T11:36:07.207Z,13.77
2023-04-12T11:38:36.835Z,13.43
2023-04-12T11:41:06.130Z,13.61
2023-04-12T11:43:34.519Z,13.94
2023-04-12T11:46:03.563Z,13.01
2023-04-12T11:48:33.449Z,13.23
2023-04-12T11:51:10.904Z,13.76
2023-04-12T11:53:40.522Z,13.95
2023-04-12T11:56:11.638Z,14.41
2023-04-12T11:58:39.593Z,14.38
2023-04-12T12:01:07.616Z,14.09
2023-04-12T12:03:37.292Z,13.81
2023-04-12T12:06:06.177Z,13.60
2023-04-12T12:08:34.757Z,13.78
2023-04-12T12:11:07.814Z,13.51
2023-04-12T12:13:46.999Z,13.59
2023-04-12T12:16:15.120Z,14.16
2023-04-12T12:18:45.640Z,14.48
2023-04-12T12:21:14.774Z,14.93
2023-04-12T12:23:44.719Z,14.34
2023-04-12T12:26:21.535Z,13.68
2023-04-12T12:28:53.865Z,14.23
2023-04-12T12:31:23.912Z,14.44
2023-04-12T12:33:57.813Z,14.14
2023-04-12T12:36:32.617Z,14.78
2023-04-12T12:39:08.454Z,14.73
2023-04-12T12:41:36.900Z,14.60
2023-04-12T12:44:04.877Z,14.94
2023-04-12T12:46:50.732Z,14.50
2023-04-12T12:49:21.711Z,14.32
2023-04-12T12:51:49.630Z,14.71
2023-04-12T12:54:32.148Z,14.69
2023-04-12T12:57:06.154Z,15.44
2023-04-12T12:59:33.980Z,14.97
2023-04-12T13:02:02.062Z,15.32
2023-04-12T13:04:31.710Z,14.93
2023-04-12T13:06:59.702Z,14.66
2023-04-12T13:09:27.614Z,14.45
2023-04-12T13:11:57.099Z,13.68
2023-04-12T13:14:24.999Z,13.79
2023-04-12T13:16:52.973Z,14.92
2023-04-12T13:19:20.901Z,14.75
2023-04-12T13:21:52.538Z,14.43
2023-04-12T13:24:21.029Z,14.24
2023-04-12T13:26:48.936Z,14.22
2023-04-12T13:29:17.115Z,14.52
2023-04-12T13:31:45.029Z,14.93
2023-04-12T13:34:12.946Z,14.75
2023-04-12T13:36:41.057Z,14.53
2023-04-12T13:39:10.331Z,14.61
2023-04-12T13:41:38.167Z,14.99
2023-04-12T13:44:06.257Z,15.65
2023-04-12T13:46:34.348Z,15.26
2023-04-12T13:49:02.283Z,15.44
2023-04-12T13:51:30.406Z,15.20
2023-04-12T13:53:58.286Z,14.90
2023-04-12T13:56:30.143Z,14.61
2023-04-12T13:58:59.158Z,15.08
2023-04-12T14:01:27.430Z,15.03
2023-04-12T14:03:55.822Z,15.23
2023-04-12T14:06:24.064Z,15.05
2023-04-12T14:08:52.246Z,15.13
2023-04-12T14:11:20.132Z,15.26
2023-04-12T14:13:49.378Z,14.82
2023-04-12T14:16:17.301Z,14.85
2023-04-12T14:18:45.690Z,14.42
2023-04-12T14:21:13.648Z,14.50
2023-04-12T14:23:41.934Z,14.91
2023-04-12T14:26:09.825Z,14.84
2023-04-12T14:28:37.764Z,14.90
2023-04-12T14:31:07.707Z,14.83
2023-04-12T14:33:35.712Z,14.69
2023-04-12T14:36:05.081Z,14.87
2023-04-12T14:38:33.207Z,14.53
2023-04-12T14:41:01.329Z,14.58
2023-04-12T14:43:29.351Z,14.96
2023-04-12T14:45:57.291Z,15.30
2023-04-12T14:48:26.738Z,15.41
2023-04-12T14:50:55.633Z,15.05
2023-04-12T14:53:23.699Z,14.71
2023-04-12T14:55:52.051Z,14.68
2023-04-12T14:58:19.943Z,14.44
2023-04-12T15:00:49.208Z,13.90
2023-04-12T15:03:17.922Z,13.92
2023-04-12T15:05:48.214Z,14.00
2023-04-12T15:08:16.618Z,13.83
2023-04-12T15:10:44.647Z,13.62
2023-04-12T15:13:12.850Z,13.95
2023-04-12T15:15:41.775Z,14.27
2023-04-12T15:18:10.515Z,14.23
2023-04-12T15:20:38.686Z,14.36
2023-04-12T15:23:08.089Z,14.17
2023-04-12T15:25:36.451Z,14.28
2023-04-12T15:28:04.406Z,14.47
2023-04-12T15:30:32.812Z,14.15
2023-04-12T15:33:00.749Z,13.71
2023-04-12T15:35:28.656Z,13.69
2023-04-12T15:37:56.591Z,13.51
2023-04-12T15:40:27.197Z,13.65
2023-04-12T15:42:55.169Z,13.44
2023-04-12T15:45:23.300Z,13.45
2023-04-12T15:47:51.353Z,13.44
2023-04-12T15:50:19.440Z,13.67
2023-04-12T15:52:47.752Z,13.73
2023-04-12T15:55:18.781Z,13.96
2023-04-12T15:57:48.609Z,14.11
2023-04-12T16:00:24.689Z,14.14
2023-04-12T16:02:54.610Z,14.07
2023-04-12T16:05:23.084Z,13.96
2023-04-12T16:07:51.533Z,13.65
2023-04-12T16:10:21.209Z,13.37
2023-04-12T16:12:51.984Z,13.21
2023-04-12T16:15:21.021Z,12.84
2023-04-12T16:17:49.573Z,12.86
2023-04-12T16:20:21.753Z,12.89
2023-04-12T16:22:54.203Z,12.78
2023-04-12T16:25:23.298Z,12.53
2023-04-12T16:27:53.276Z,12.17
2023-04-12T16:30:22.470Z,12.00
2023-04-12T16:32:52.189Z,11.82
2023-04-12T16:35:20.367Z,11.81
2023-04-12T16:37:48.484Z,11.63
2023-04-12T16:40:17.268Z,11.66
2023-04-12T16:42:45.949Z,11.75
2023-04-12T16:45:18.086Z,11.91
2023-04-12T16:47:47.939Z,11.82
2023-04-12T16:50:16.611Z,11.91
2023-04-12T16:52:44.508Z,11.69
2023-04-12T16:55:12.842Z,11.65
2023-04-12T16:57:41.816Z,11.59
2023-04-12T17:00:20.611Z,11.13
2023-04-12T17:02:52.294Z,11.11
2023-04-12T17:05:21.095Z,10.98
2023-04-12T17:07:50.631Z,10.89
2023-04-12T17:10:19.785Z,10.75
2023-04-12T17:12:49.384Z,10.70
2023-04-12T17:15:18.764Z,10.61
2023-04-12T17:17:50.913Z,10.57
2023-04-12T17:20:20.345Z,10.55
2023-04-12T17:22:49.107Z,10.53
2023-04-12T17:25:18.888Z,10.50
2023-04-12T17:27:48.697Z,10.38
2023-04-12T17:30:17.771Z,10.28
2023-04-12T17:32:47.197Z,10.12
2023-04-12T17:35:17.894Z,10.23
2023-04-12T17:37:46.166Z,10.23
2023-04-12T17:40:14.356Z,10.13
2023-04-12T17:42:43.668Z,10.06
2023-04-12T17:45:14.686Z,9.97
2023-04-12T17:47:43.843Z,10.01
2023-04-12T17:50:13.470Z,9.98
2023-04-12T17:52:42.849Z,9.96
2023-04-12T17:55:12.550Z,9.92
2023-04-12T17:57:40.582Z,9.92
2023-04-12T18:00:12.026Z,9.90
2023-04-12T18:02:40.392Z,9.82
2023-04-12T18:05:09.265Z,9.79
2023-04-12T18:07:37.138Z,9.73
2023-04-12T18:10:07.786Z,9.71
2023-04-12T18:12:35.623Z,9.70
2023-04-12T18:15:03.749Z,9.67
2023-04-12T18:17:31.868Z,9.68
2023-04-12T18:20:02.007Z,9.64
2023-04-12T18:22:31.079Z,9.60
2023-04-12T18:24:58.953Z,9.60
2023-04-12T18:27:28.418Z,9.62
2023-04-12T18:29:56.619Z,9.60
2023-04-12T18:32:24.562Z,9.59
2023-04-12T18:34:52.699Z,9.51
2023-04-12T18:37:20.784Z,9.54
2023-04-12T18:39:49.287Z,9.45
2023-04-12T18:42:18.532Z,9.44
2023-04-12T18:44:47.882Z,9.47
2023-04-12T18:47:15.787Z,9.44
2023-04-12T18:49:43.765Z,9.34
2023-04-12T18:52:11.661Z,9.29
2023-04-12T18:54:39.690Z,9.26
2023-04-12T18:57:08.489Z,9.27
2023-04-12T18:59:36.516Z,9.25
2023-04-12T19:02:06.061Z,9.14
2023-04-12T19:04:33.994Z,9.00
2023-04-12T19:07:01.924Z,9.07
2023-04-12T19:09:30.037Z,9.05
2023-04-12T19:11:59.027Z,9.09
2023-04-12T19:14:30.135Z,9.07
2023-04-12T19:16:58.184Z,9.08
2023-04-12T19:19:27.556Z,9.11
2023-04-12T19:21:56.016Z,8.95
2023-04-12T19:24:23.932Z,9.11
2023-04-12T19:26:51.765Z,9.01
2023-04-12T19:29:19.855Z,8.99
2023-04-12T19:31:49.188Z,9.02
2023-04-12T19:34:18.101Z,9.02
2023-04-12T19:36:47.724Z,8.97
2023-04-12T19:39:18.157Z,9.05
2023-04-12T19:41:48.516Z,8.96
2023-04-12T19:44:16.904Z,9.03
2023-04-12T19:46:44.988Z,8.97
2023-04-12T19:49:13.439Z,8.94
2023-04-12T19:51:41.425Z,8.87
2023-04-12T19:54:10.954Z,8.99
2023-04-12T19:56:39.420Z,9.00
2023-04-12T19:59:10.868Z,9.00
2023-04-12T20:01:47.708Z,8.82
2023-04-12T20:04:16.684Z,8.85
2023-04-12T20:06:44.988Z,8.69
2023-04-12T20:09:14.886Z,8.69
2023-04-12T20:11:44.297Z,8.76
2023-04-12T20:14:12.308Z,8.54
2023-04-12T20:16:42.639Z,8.49
2023-04-12T20:19:11.206Z,8.48
2023-04-12T20:21:39.545Z,8.54
2023-04-12T20:24:08.801Z,8.53
2023-04-12T20:26:38.075Z,8.45
2023-04-12T20:29:06.869Z,8.49
2023-04-12T20:31:35.039Z,8.42
2023-04-12T20:34:04.140Z,8.42
2023-04-12T20:36:32.834Z,8.42
2023-04-12T20:39:01.709Z,8.41
2023-04-12T20:41:29.831Z,8.38
2023-04-12T20:43:59.489Z,8.39
2023-04-12T20:46:27.545Z,8.45
2023-04-12T20:48:56.531Z,8.42
2023-04-12T20:51:25.192Z,8.39
2023-04-12T20:53:53.116Z,8.35
2023-04-12T20:56:20.990Z,8.30
2023-04-12T20:58:49.881Z,8.25
2023-04-12T21:01:19.574Z,8.28
2023-04-12T21:06:34.554Z,8.19
2023-04-12T21:09:05.949Z,8.11
2023-04-12T21:11:33.937Z,8.20
2023-04-12T21:14:02.167Z,8.20
2023-04-12T21:16:31.429Z,8.17
2023-04-12T21:18:59.612Z,8.06
2023-04-12T21:21:28.642Z,8.07
2023-04-12T21:23:56.485Z,8.18
2023-04-12T21:26:24.432Z,8.17
2023-04-12T21:28:52.555Z,8.17
2023-04-12T21:31:20.716Z,8.13
2023-04-12T21:33:50.543Z,8.09
2023-04-12T21:36:18.839Z,8.13
2023-04-12T21:38:46.739Z,8.07
2023-04-12T21:41:15.084Z,8.09
2023-04-12T21:43:47.444Z,8.04
2023-04-12T21:46:15.428Z,8.01
2023-04-12T21:48:43.297Z,8.02
2023-04-12T21:51:12.593Z,7.99
2023-04-12T21:53:40.453Z,7.98
2023-04-12T21:56:09.823Z,7.99
2023-04-12T21:58:37.996Z,7.96
2023-04-12T22:01:07.103Z,7.93
2023-04-12T22:03:35.134Z,7.81
2023-04-12T22:06:05.113Z,7.82
2023-04-12T22:08:34.756Z,7.93
2023-04-12T22:11:02.709Z,7.90
2023-04-12T22:13:30.975Z,7.91
2023-04-12T22:16:00.766Z,7.90
2023-04-12T22:18:28.722Z,7.90
2023-04-12T22:20:57.782Z,7.88
2023-04-12T22:23:25.748Z,7.90
2023-04-12T22:25:58.579Z,7.90
2023-04-12T22:28:26.492Z,7.83
2023-04-12T22:30:57.070Z,7.79
2023-04-12T22:33:25.282Z,7.74
2023-04-12T22:35:53.189Z,7.75
2023-04-12T22:38:21.041Z,7.70
2023-04-12T22:40:48.951Z,7.65
2023-04-12T22:43:22.342Z,7.67
2023-04-12T22:45:54.015Z,7.72
2023-04-12T22:48:24.927Z,7.65
2023-04-12T22:50:54.542Z,7.58
2023-04-12T22:53:22.561Z,7.59
2023-04-12T22:55:50.415Z,7.66
2023-04-12T22:58:19.732Z,7.68
2023-04-12T23:00:49.450Z,7.50
2023-04-12T23:03:17.713Z,7.60
2023-04-12T23:05:45.942Z,7.60
2023-04-12T23:08:15.349Z,7.53
2023-04-12T23:10:43.319Z,7.59
2023-04-12T23:13:12.216Z,7.59
2023-04-12T23:15:44.010Z,7.62
2023-04-12T23:18:12.538Z,7.60
2023-04-12T23:20:40.633Z,7.53
2023-04-12T23:23:08.484Z,7.42
2023-04-12T23:25:39.627Z,7.29
2023-04-12T23:28:12.821Z,7.09
2023-04-12T23:30:44.917Z,6.74
2023-04-12T23:33:13.078Z,6.69
2023-04-12T23:35:41.725Z,6.52
2023-04-12T23:38:10.561Z,6.37
2023-04-12T23:40:38.470Z,6.21
2023-04-12T23:43:07.661Z,6.12
2023-04-12T23:45:35.808Z,5.92
2023-04-12T23:48:07.050Z,5.83
2023-04-12T23:50:35.339Z,5.74
2023-04-12T23:53:03.693Z,5.67
2023-04-12T23:55:31.761Z,5.50
2023-04-12T23:57:59.793Z,5.43
